Time;durP1;ratioP1;P1;durP2;ratioP2;P2;SDS_P1;SDS_P2;PMS_P1;PMS_P2;Temp;Humidity;BMP_temperature;BMP_pressure;BME280_temperature;BME280_humidity;BME280_pressure;Samples;Min_cycle;Max_cycle;Signal;HPM_P1;HPM_P2
2022/10/19 00:01:23;;;;;;;15.30;5.55;;;;;;;7.13;100.00;102910.28;6180816;23;20005;-90
2022/10/19 00:03:52;;;;;;;14.35;5.43;;;;;;;7.14;100.00;102908.56;6178145;23;20008;-91
2022/10/19 00:06:28;;;;;;;12.00;5.35;;;;;;;7.02;100.00;102888.53;6178613;23;20032;-90
2022/10/19 00:09:04;;;;;;;10.93;5.72;;;;;;;7.01;100.00;102888.50;6177903;23;20083;-90
2022/10/19 00:11:31;;;;;;;11.82;5.47;;;;;;;6.95;100.00;102881.50;6180266;23;20009;-90
2022/10/19 00:13:58;;;;;;;11.23;5.30;;;;;;;6.94;100.00;102882.31;6176214;23;20012;-89
2022/10/19 00:16:30;;;;;;;15.10;5.93;;;;;;;7.01;100.00;102899.69;6179007;23;20009;-90
2022/10/19 00:19:08;;;;;;;11.30;5.38;;;;;;;6.86;100.00;102867.50;6179355;23;20012;-89
2022/10/19 00:21:37;;;;;;;12.45;5.47;;;;;;;6.99;100.00;102898.75;6179476;23;20402;-89
2022/10/19 00:24:03;;;;;;;15.93;5.35;;;;;;;6.83;100.00;102880.28;6178817;23;20041;-89
2022/10/19 00:26:29;;;;;;;12.02;5.47;;;;;;;6.85;100.00;102884.66;6178681;23;20080;-89
2022/10/19 00:28:55;;;;;;;10.30;4.97;;;;;;;6.81;100.00;102882.88;6178123;23;20001;-89
2022/10/19 00:31:21;;;;;;;11.82;5.15;;;;;;;6.84;100.00;102888.06;6179202;23;20005;-89
2022/10/19 00:33:51;;;;;;;14.10;5.68;;;;;;;6.79;100.00;102878.50;6179874;23;20008;-90
2022/10/19 00:36:40;;;;;;;12.32;5.50;;;;;;;6.94;100.00;102899.50;6180667;23;20557;-89
2022/10/19 00:39:10;;;;;;;14.98;5.20;;;;;;;6.91;100.00;102899.41;6180386;23;20521;-90
2022/10/19 00:41:37;;;;;;;12.10;5.57;;;;;;;6.85;100.00;102892.41;6180720;23;20343;-90
2022/10/19 00:44:04;;;;;;;11.13;5.18;;;;;;;6.87;100.00;102895.03;6177182;23;20117;-89
2022/10/19 00:46:40;;;;;;;11.30;4.95;;;;;;;6.71;100.00;102878.31;6180712;23;20000;-90
2022/10/19 00:49:40;;;;;;;11.05;5.22;;;;;;;6.70;100.00;102867.13;6180477;23;20084;-90
2022/10/19 00:52:22;;;;;;;9.85;4.75;;;;;;;6.68;100.00;102880.81;6183565;23;20352;-90
2022/10/19 00:54:50;;;;;;;10.80;5.18;;;;;;;6.66;100.00;102890.22;6181034;23;20005;-90
2022/10/19 00:57:16;;;;;;;11.45;4.88;;;;;;;6.72;100.00;102898.97;6180714;23;20063;-89
2022/10/19 00:59:44;;;;;;;9.90;5.07;;;;;;;6.70;100.00;102908.34;6180645;23;20004;-89
2022/10/19 01:02:10;;;;;;;10.32;4.93;;;;;;;6.53;100.00;102876.16;6181403;23;20009;-90
2022/10/19 01:04:43;;;;;;;10.23;4.78;;;;;;;6.57;100.00;102885.69;6181100;23;20001;-90
2022/10/19 01:07:09;;;;;;;10.52;4.80;;;;;;;6.61;100.00;102884.94;6180124;23;20576;-90
2022/10/19 01:09:47;;;;;;;9.77;4.40;;;;;;;6.58;100.00;102892.59;6180909;23;20012;-89
2022/10/19 01:12:41;;;;;;;15.07;5.15;;;;;;;6.56;100.00;102890.78;6180335;23;20079;-90
2022/10/19 01:15:35;;;;;;;11.65;4.82;;;;;;;6.55;100.00;102883.91;6181190;23;20001;-89
2022/10/19 01:18:01;;;;;;;11.45;5.10;;;;;;;6.60;100.00;102892.63;6180019;23;20016;-89
2022/10/19 01:20:29;;;;;;;10.27;4.88;;;;;;;6.57;100.00;102887.38;6179069;23;20059;-90
2022/10/19 01:23:25;;;;;;;9.23;4.90;;;;;;;6.60;100.00;102897.78;6181870;23;20005;-90
2022/10/19 01:26:28;;;;;;;12.65;5.20;;;;;;;6.43;100.00;102869.00;6181700;23;20087;-91
2022/10/19 01:29:38;;;;;;;8.98;5.03;;;;;;;6.49;100.00;102873.44;6181357;23;20000;-90
2022/10/19 01:32:15;;;;;;;9.68;4.95;;;;;;;6.48;100.00;102874.28;6180899;23;20005;-90
2022/10/19 01:34:54;;;;;;;11.15;4.75;;;;;;;6.46;100.00;102865.66;6180171;23;20020;-90
2022/10/19 01:37:51;;;;;;;10.90;4.90;;;;;;;6.45;100.00;102866.47;6182351;23;20005;-90
2022/10/19 01:40:22;;;;;;;12.27;5.18;;;;;;;6.49;100.00;102881.16;6180325;23;20008;-90
2022/10/19 01:43:01;;;;;;;13.45;5.00;;;;;;;6.33;100.00;102852.47;6180180;23;20009;-90
2022/10/19 01:46:07;;;;;;;11.35;5.28;;;;;;;6.35;100.00;102860.19;6180029;23;20009;-90
2022/10/19 01:48:37;;;;;;;9.52;5.20;;;;;;;6.43;100.00;102883.59;6203360;23;20005;-90
2022/10/19 01:51:22;;;;;;;13.98;5.30;;;;;;;6.48;100.00;102882.03;6181212;23;20017;-91
2022/10/19 01:53:51;;;;;;;11.02;4.95;;;;;;;6.32;100.00;102847.25;6180798;23;20039;-90
2022/10/19 01:56:22;;;;;;;15.95;5.45;;;;;;;6.40;100.00;102868.06;6180859;23;20012;-90
2022/10/19 01:58:55;;;;;;;12.00;5.35;;;;;;;6.33;100.00;102859.31;6180497;23;20067;-90
2022/10/19 02:01:27;;;;;;;11.18;5.32;;;;;;;6.34;100.00;102855.91;6179424;23;20008;-91
2022/10/19 02:03:59;;;;;;;12.73;5.50;;;;;;;6.30;100.00;102854.06;6179925;23;20077;-90
2022/10/19 02:06:29;;;;;;;14.07;5.55;;;;;;;6.28;100.00;102851.44;6181005;23;20004;-90
2022/10/19 02:08:59;;;;;;;13.43;5.93;;;;;;;6.27;100.00;102849.72;6179058;23;20005;-91
2022/10/19 02:11:25;;;;;;;14.88;5.90;;;;;;;6.33;100.00;102855.03;6179469;23;20080;-90
2022/10/19 02:14:03;;;;;;;11.27;5.88;;;;;;;6.39;100.00;102859.47;6180981;23;20087;-90
2022/10/19 02:16:35;;;;;;;15.00;5.45;;;;;;;6.38;100.00;102851.69;6179994;23;20005;-90
2022/10/19 02:19:07;;;;;;;14.15;5.90;;;;;;;6.33;100.00;102841.28;6180196;23;20067;-90
2022/10/19 02:21:35;;;;;;;11.52;5.43;;;;;;;6.18;100.00;102831.44;6179577;23;20015;-90
2022/10/19 02:24:10;;;;;;;14.60;5.70;;;;;;;6.25;100.00;102835.94;6180963;23;20059;-90
2022/10/19 02:26:36;;;;;;;12.88;5.80;;;;;;;6.17;100.00;102824.56;6181049;23;19997;-90
2022/10/19 02:29:04;;;;;;;10.90;5.90;;;;;;;6.12;100.00;102818.41;6181196;23;20009;-90
2022/10/19 02:31:33;;;;;;;16.33;6.68;;;;;;;6.13;100.00;102821.88;6181751;23;20039;-90
2022/10/19 02:34:01;;;;;;;15.70;6.05;;;;;;;6.15;100.00;102818.47;6180654;23;20320;-90
2022/10/19 02:36:39;;;;;;;11.27;6.35;;;;;;;6.23;100.00;102826.41;6180817;23;20009;-90
2022/10/19 02:39:08;;;;;;;11.45;5.75;;;;;;;6.17;100.00;102808.22;6181358;23;20011;-90
2022/10/19 02:41:43;;;;;;;12.35;6.68;;;;;;;6.25;100.00;102817.91;6181482;23;20033;-90
2022/10/19 02:44:17;;;;;;;11.23;6.35;;;;;;;6.15;100.00;102800.47;6179236;23;20065;-90
2022/10/19 02:46:53;;;;;;;15.65;5.95;;;;;;;6.16;100.00;102794.47;6179494;23;20088;-90
2022/10/19 02:49:19;;;;;;;15.07;6.63;;;;;;;6.32;100.00;102814.66;6181713;23;20421;-90
2022/10/19 02:51:58;;;;;;;13.05;6.55;;;;;;;6.23;100.00;102796.38;6179596;23;20017;-90
2022/10/19 02:54:26;;;;;;;12.35;6.22;;;;;;;6.33;100.00;102803.53;6177418;23;20032;-91
2022/10/19 02:56:58;;;;;;;12.75;6.43;;;;;;;6.33;100.00;102802.66;6179189;23;20067;-90
2022/10/19 02:59:29;;;;;;;21.55;7.05;;;;;;;6.39;100.00;102802.81;6179782;23;20001;-90
2022/10/19 03:02:02;;;;;;;12.90;6.40;;;;;;;6.37;100.00;102801.00;6179784;23;20011;-91
2022/10/19 03:04:53;;;;;;;15.15;6.63;;;;;;;6.35;100.00;102800.97;6178897;23;20008;-91
2022/10/19 03:07:20;;;;;;;11.70;5.88;;;;;;;6.37;100.00;102808.72;6178874;23;20001;-91
2022/10/19 03:09:51;;;;;;;12.50;6.00;;;;;;;6.37;100.00;102809.59;6179647;23;20423;-91
2022/10/19 03:12:20;;;;;;;17.63;6.22;;;;;;;6.32;100.00;102806.94;6179075;23;20005;-90
2022/10/19 03:14:53;;;;;;;12.95;6.50;;;;;;;6.30;100.00;102808.59;6180694;23;20083;-90
2022/10/19 03:17:27;;;;;;;12.43;6.80;;;;;;;6.33;100.00;102812.94;6178834;23;20315;-90
2022/10/19 03:20:13;;;;;;;14.07;6.60;;;;;;;6.31;100.00;102806.88;6179600;23;20091;-92
2022/10/19 03:22:39;;;;;;;14.93;6.70;;;;;;;6.24;100.00;102799.81;6180863;23;20009;-91
2022/10/19 03:25:11;;;;;;;14.35;6.78;;;;;;;6.24;100.00;102798.13;6178533;23;20035;-90
2022/10/19 03:27:36;;;;;;;17.40;6.20;;;;;;;6.29;100.00;102809.41;6180502;23;19997;-90
2022/10/19 03:30:05;;;;;;;13.30;6.20;;;;;;;6.35;100.00;102824.13;6181360;23;20012;-90
2022/10/19 03:32:45;;;;;;;15.10;6.13;;;;;;;6.27;100.00;102811.09;6178722;23;20052;-90
2022/10/19 03:35:13;;;;;;;10.77;5.63;;;;;;;6.19;100.00;102799.72;6181387;23;20072;-90
2022/10/19 03:38:04;;;;;;;11.98;5.68;;;;;;;6.09;100.00;102779.72;6176630;23;20423;-90
2022/10/19 03:40:32;;;;;;;12.43;5.85;;;;;;;6.11;100.00;102787.47;6180628;23;20364;-90
2022/10/19 03:42:59;;;;;;;14.32;6.18;;;;;;;6.20;100.00;102811.78;6178886;23;20040;-90
2022/10/19 03:45:54;;;;;;;11.45;5.60;;;;;;;6.09;100.00;102800.31;6178567;23;20009;-90
2022/10/19 03:48:24;;;;;;;9.68;5.30;;;;;;;6.08;100.00;102797.69;6180356;23;20427;-90
2022/10/19 03:51:03;;;;;;;15.60;6.20;;;;;;;6.09;100.00;102799.44;6178412;23;20025;-91
2022/10/19 03:53:39;;;;;;;9.15;5.60;;;;;;;6.10;100.00;102801.19;6180924;23;20458;-91
2022/10/19 03:56:08;;;;;;;11.68;5.03;;;;;;;5.95;100.00;102788.78;6179363;23;20008;-90
2022/10/19 03:58:40;;;;;;;11.07;5.72;;;;;;;6.02;100.00;102802.66;6180633;23;20008;-90
2022/10/19 04:01:20;;;;;;;10.65;5.55;;;;;;;5.92;100.00;102799.00;6180643;23;20537;-90
2022/10/19 04:04:13;;;;;;;13.45;5.65;;;;;;;5.94;100.00;102808.50;6177993;23;20020;-91
2022/10/19 04:06:43;;;;;;;11.50;5.43;;;;;;;6.02;100.00;102823.25;6188041;23;20005;-91
2022/10/19 04:09:45;;;;;;;;;;;;;;;;;;;;;
2022/10/19 04:12:31;;;;;;;10.93;5.65;;;;;;;5.98;100.00;102830.06;6180897;23;20080;-91
2022/10/19 04:18:02;;;;;;;13.82;5.43;;;;;;;5.99;100.00;102836.94;6171174;23;20021;-91
2022/10/19 04:20:40;;;;;;;;;;;;;;;;;;;;;
2022/10/19 04:23:12;;;;;;;10.25;5.43;;;;;;;5.85;100.00;102799.63;6183106;23;20510;-90
2022/10/19 04:25:48;;;;;;;12.68;5.47;;;;;;;5.86;100.00;102802.25;6181531;23;20039;-90
2022/10/19 04:28:22;;;;;;;12.57;5.55;;;;;;;6.00;100.00;102827.53;6182628;23;20055;-90
2022/10/19 04:31:14;;;;;;;14.98;5.43;;;;;;;5.94;100.00;102828.19;6181034;23;20428;-91
2022/10/19 04:33:43;;;;;;;10.75;5.40;;;;;;;5.83;100.00;102799.59;6180230;23;20005;-91
2022/10/19 04:36:10;;;;;;;9.32;5.05;;;;;;;5.81;100.00;102795.22;6183171;23;20001;-90
2022/10/19 04:38:38;;;;;;;9.38;5.40;;;;;;;5.86;100.00;102802.25;6181252;23;20370;-90
2022/10/19 04:41:07;;;;;;;13.75;5.50;;;;;;;5.83;100.00;102796.13;6181821;23;20339;-91
2022/10/19 04:44:01;;;;;;;11.65;5.90;;;;;;;5.79;100.00;102794.31;6180574;23;20013;-90
2022/10/19 04:46:37;;;;;;;11.02;5.30;;;;;;;5.79;100.00;102795.19;6181492;23;20008;-90
2022/10/19 04:49:04;;;;;;;16.15;5.47;;;;;;;5.80;100.00;102793.50;6181499;23;20339;-91
2022/10/19 04:51:37;;;;;;;11.23;6.07;;;;;;;5.92;100.00;102801.56;6180797;23;20018;-91
2022/10/19 04:54:03;;;;;;;14.25;5.82;;;;;;;5.89;100.00;102796.34;6180984;23;20063;-91
2022/10/19 04:56:35;;;;;;;10.98;6.10;;;;;;;5.92;100.00;102796.44;6181436;23;20005;-90
2022/10/19 04:59:00;;;;;;;13.32;6.05;;;;;;;5.83;100.00;102780.69;6182000;23;20056;-90
2022/10/19 05:01:34;;;;;;;13.57;6.03;;;;;;;5.83;100.00;102791.88;6180799;23;20001;-90
2022/10/19 05:04:06;;;;;;;12.98;5.90;;;;;;;5.94;100.00;102817.91;6181255;23;20001;-91
2022/10/19 05:06:39;;;;;;;11.65;5.88;;;;;;;5.87;100.00;102810.81;6182569;23;20000;-90
2022/10/19 05:09:08;;;;;;;12.68;5.75;;;;;;;5.77;100.00;102791.69;6181084;23;20012;-92
2022/10/19 05:11:42;;;;;;;11.80;6.32;;;;;;;5.82;100.00;102802.97;6180507;23;20005;-91
2022/10/19 05:14:19;;;;;;;12.10;5.65;;;;;;;5.83;100.00;102809.00;6182261;23;20028;-90
2022/10/19 05:16:54;;;;;;;12.45;5.75;;;;;;;5.82;100.00;102807.25;6182258;23;20001;-90
2022/10/19 05:19:29;;;;;;;12.98;5.75;;;;;;;5.69;100.00;102787.16;6181365;23;20076;-90
2022/10/19 05:21:58;;;;;;;12.35;5.65;;;;;;;5.77;100.00;102807.13;6180488;23;20330;-91
2022/10/19 05:24:24;;;;;;;11.75;5.78;;;;;;;5.74;100.00;102801.91;6182565;23;20012;-91
2022/10/19 05:26:51;;;;;;;16.10;5.97;;;;;;;5.73;100.00;102799.31;6179815;23;20001;-90
2022/10/19 05:29:17;;;;;;;14.77;6.38;;;;;;;5.79;100.00;102814.91;6181894;23;20177;-92
2022/10/19 05:31:48;;;;;;;11.93;5.68;;;;;;;5.61;100.00;102780.94;6180977;23;20033;-91
2022/10/19 05:34:15;;;;;;;9.68;5.68;;;;;;;5.77;100.00;102806.28;6179923;23;20012;-90
2022/10/19 05:36:49;;;;;;;12.40;6.00;;;;;;;5.64;100.00;102789.63;6179272;23;20039;-90
2022/10/19 05:39:21;;;;;;;11.38;5.85;;;;;;;5.56;100.00;102773.97;6179549;23;20020;-90
2022/10/19 05:41:59;;;;;;;10.45;5.78;;;;;;;5.71;100.00;102799.25;6181285;23;20055;-91
2022/10/19 05:44:32;;;;;;;14.07;6.00;;;;;;;5.54;100.00;102769.59;6181337;23;20005;-91
2022/10/19 05:47:01;;;;;;;12.63;6.18;;;;;;;5.55;100.00;102767.09;6180877;23;20031;-90
2022/10/19 05:49:33;;;;;;;16.70;6.22;;;;;;;5.60;100.00;102768.91;6180574;23;20063;-90
2022/10/19 05:51:59;;;;;;;14.52;6.28;;;;;;;5.66;100.00;102769.97;6180831;23;20119;-90
2022/10/19 05:54:25;;;;;;;10.10;6.05;;;;;;;5.70;100.00;102789.78;6181172;23;20043;-90
2022/10/19 05:56:53;;;;;;;12.82;5.68;;;;;;;5.61;100.00;102775.78;6178829;23;20059;-90
2022/10/19 05:59:25;;;;;;;16.58;7.38;;;;;;;5.63;100.00;102771.56;6180524;23;20000;-91
2022/10/19 06:02:14;;;;;;;12.48;6.45;;;;;;;5.63;100.00;102764.72;6180174;23;20005;-91
2022/10/19 06:04:42;;;;;;;11.27;6.15;;;;;;;5.63;100.00;102766.41;6181402;23;20467;-89
2022/10/19 06:07:17;;;;;;;18.52;6.88;;;;;;;5.60;100.00;102766.31;6182015;23;19997;-89
2022/10/19 06:09:46;;;;;;;10.35;6.00;;;;;;;5.65;100.00;102775.06;6182330;23;20008;-88
2022/10/19 06:12:12;;;;;;;18.02;6.75;;;;;;;5.73;100.00;102796.72;6179512;23;20013;-90
2022/10/19 06:14:37;;;;;;;12.13;6.50;;;;;;;5.68;100.00;102788.88;6182358;23;20382;-90
2022/10/19 06:17:03;;;;;;;12.70;6.47;;;;;;;5.60;100.00;102780.06;6180873;23;20009;-89
2022/10/19 06:19:37;;;;;;;16.02;6.40;;;;;;;5.66;100.00;102779.38;6180219;23;20005;-91
2022/10/19 06:22:02;;;;;;;;;;;;;;;5.74;100.00;102794.19;6181403;23;20005;-89
2022/10/19 06:24:28;;;;;;;12.07;6.22;;;;;;;5.70;100.00;102783.78;6181846;23;19904;-90
2022/10/19 06:26:56;;;;;;;14.98;6.30;;;;;;;5.68;100.00;102778.56;6179827;23;20434;-90
2022/10/19 06:29:24;;;;;;;11.70;6.05;;;;;;;5.72;100.00;102793.28;6179469;23;19997;-89
2022/10/19 06:31:50;;;;;;;14.50;7.10;;;;;;;5.63;100.00;102780.16;6180293;23;20001;-90
2022/10/19 06:34:25;;;;;;;13.73;6.95;;;;;;;5.59;100.00;102754.31;6180272;23;20005;-89
2022/10/19 06:36:53;;;;;;;13.60;7.65;;;;;;;5.64;100.00;102748.47;6180376;23;20331;-89
2022/10/19 06:39:21;;;;;;;14.93;7.72;;;;;;;5.85;100.00;102790.22;6178204;23;20008;-89
2022/10/19 06:41:46;;;;;;;18.08;7.97;;;;;;;5.72;100.00;102758.97;6179365;23;20392;-89
2022/10/19 06:44:22;;;;;;;18.30;8.52;;;;;;;5.76;100.00;102750.47;6178871;23;20029;-89
2022/10/19 06:46:47;;;;;;;20.98;8.75;;;;;;;5.86;100.00;102767.94;6177988;23;20088;-89
2022/10/19 06:49:20;;;;;;;18.77;9.13;;;;;;;5.95;100.00;102779.34;6178584;23;20043;-90
2022/10/19 06:51:54;;;;;;;19.13;9.43;;;;;;;5.86;100.00;102761.06;6178066;23;20331;-90
2022/10/19 06:54:20;;;;;;;20.58;10.07;;;;;;;5.95;100.00;102778.47;6179345;23;20005;-89
2022/10/19 06:56:47;;;;;;;20.83;10.25;;;;;;;5.93;100.00;102772.44;6180409;23;20016;-90
2022/10/19 06:59:13;;;;;;;17.75;9.55;;;;;;;6.01;100.00;102786.34;6179302;23;20005;-89
2022/10/19 07:01:39;;;;;;;20.63;10.45;;;;;;;6.03;100.00;102789.84;6179223;23;20032;-89
2022/10/19 07:04:15;;;;;;;22.45;9.50;;;;;;;6.09;100.00;102797.72;6179444;23;20339;-89
2022/10/19 07:06:41;;;;;;;24.20;10.45;;;;;;;6.09;100.00;102791.72;6179172;23;20012;-89
2022/10/19 07:09:09;;;;;;;19.25;9.98;;;;;;;6.07;100.00;102791.69;6179343;23;20030;-89
2022/10/19 07:11:40;;;;;;;19.55;10.13;;;;;;;6.14;100.00;102795.28;6177169;23;20399;-89
2022/10/19 07:14:10;;;;;;;27.83;12.80;;;;;;;6.10;100.00;102778.00;6178343;23;20012;-90
2022/10/19 07:16:39;;;;;;;23.73;11.63;;;;;;;6.09;100.00;102765.97;6177860;23;20009;-89
2022/10/19 07:19:05;;;;;;;29.83;12.57;;;;;;;6.22;100.00;102781.75;6178860;23;20072;-90
2022/10/19 07:21:30;;;;;;;23.75;12.70;;;;;;;6.34;100.00;102794.97;6179419;23;20044;-89
2022/10/19 07:23:56;;;;;;;22.92;11.65;;;;;;;6.24;100.00;102762.06;6178533;23;20062;-90
2022/10/19 07:26:27;;;;;;;22.00;12.50;;;;;;;6.28;100.00;102763.88;6178919;23;19993;-90
2022/10/19 07:28:56;;;;;;;25.08;11.82;;;;;;;6.41;100.00;102785.69;6177604;23;20040;-90
2022/10/19 07:31:26;;;;;;;22.27;11.48;;;;;;;6.49;100.00;102791.88;6177195;23;21288;-90
2022/10/19 07:33:53;;;;;;;25.13;11.55;;;;;;;6.44;100.00;102774.56;6179258;23;20032;-89
2022/10/19 07:36:21;;;;;;;27.50;12.50;;;;;;;6.55;100.00;102789.44;6177579;23;20009;-89
2022/10/19 07:38:50;;;;;;;24.52;11.50;;;;;;;6.59;100.00;102786.13;6177330;23;20080;-89
2022/10/19 07:41:18;;;;;;;24.70;12.05;;;;;;;6.68;100.00;102785.47;6176391;23;20359;-90
2022/10/19 07:43:45;;;;;;;23.60;11.38;;;;;;;6.65;100.00;102778.53;6177140;23;20044;-89
2022/10/19 07:46:13;;;;;;;23.90;12.10;;;;;;;6.78;100.00;102790.00;6178623;23;20424;-89
2022/10/19 07:48:39;;;;;;;24.95;12.00;;;;;;;6.82;100.00;102796.97;6176912;23;20005;-89
2022/10/19 07:51:08;;;;;;;23.00;11.35;;;;;;;6.91;100.00;102793.72;6178820;23;20017;-89
2022/10/19 07:53:34;;;;;;;24.48;11.65;;;;;;;6.97;100.00;102794.72;6181925;23;20012;-89
2022/10/19 07:56:08;;;;;;;22.08;11.18;;;;;;;7.07;100.00;102791.53;6182020;23;20443;-89
2022/10/19 07:58:35;;;;;;;22.35;12.05;;;;;;;7.09;100.00;102771.81;6182663;23;20004;-90
2022/10/19 08:01:02;;;;;;;25.25;12.23;;;;;;;7.08;100.00;102757.16;6181840;23;20009;-90
2022/10/19 08:03:27;;;;;;;23.25;11.90;;;;;;;7.23;100.00;102761.78;6180648;23;20016;-88
2022/10/19 08:05:53;;;;;;;20.70;12.13;;;;;;;7.31;100.00;102741.28;6181932;23;20414;-90
2022/10/19 08:08:18;;;;;;;24.52;12.73;;;;;;;7.49;100.00;102763.19;6179417;23;20005;-90
2022/10/19 08:10:44;;;;;;;24.98;13.13;;;;;;;7.61;100.00;102762.53;6180004;23;20467;-89
2022/10/19 08:13:09;;;;;;;24.48;12.52;;;;;;;7.69;100.00;102758.41;6179770;23;20491;-89
2022/10/19 08:15:34;;;;;;;24.92;13.27;;;;;;;7.77;100.00;102759.41;6182207;23;20462;-89
2022/10/19 08:18:00;;;;;;;24.98;13.27;;;;;;;7.83;100.00;102756.94;6179761;23;20435;-90
2022/10/19 08:20:27;;;;;;;27.25;13.40;;;;;;;7.90;100.00;102751.06;6180322;23;20008;-90
2022/10/19 08:22:53;;;;;;;27.75;12.93;;;;;;;7.97;100.00;102753.75;6180838;23;20008;-90
2022/10/19 08:25:19;;;;;;;24.33;12.65;;;;;;;7.91;100.00;102733.84;6181730;23;20008;-89
2022/10/19 08:27:47;;;;;;;28.48;13.00;;;;;;;8.06;100.00;102743.56;6181357;23;20052;-90
2022/10/19 08:30:12;;;;;;;23.25;12.63;;;;;;;8.15;100.00;102760.09;6179200;23;20005;-89
2022/10/19 08:32:38;;;;;;;23.02;12.50;;;;;;;8.09;100.00;102736.75;6182539;23;20015;-90
2022/10/19 08:35:04;;;;;;;24.13;12.30;;;;;;;8.28;100.00;102761.16;6180547;23;20036;-90
2022/10/19 08:37:29;;;;;;;24.52;11.85;;;;;;;8.33;100.00;102759.53;6179995;23;20179;-90
2022/10/19 08:39:55;;;;;;;26.05;11.93;;;;;;;8.40;100.00;102739.84;6180495;23;20062;-89
2022/10/19 08:42:31;;;;;;;24.05;11.63;;;;;;;8.48;100.00;102740.84;6180585;23;20083;-90
2022/10/19 08:45:11;;;;;;;24.23;11.18;;;;;;;8.61;100.00;102743.63;6179711;23;20008;-89
2022/10/19 08:47:51;;;;;;;18.75;10.55;;;;;;;8.81;100.00;102748.22;6180298;23;20005;-90
2022/10/19 08:50:21;;;;;;;22.10;10.32;;;;;;;8.91;100.00;102740.63;6180048;23;20013;-89
2022/10/19 08:52:56;;;;;;;23.73;10.07;;;;;;;8.99;100.00;102728.66;6182492;23;20023;-90
2022/10/19 08:55:32;;;;;;;23.15;9.82;;;;;;;9.03;100.00;102714.03;6180592;23;20015;-90
2022/10/19 08:58:24;;;;;;;18.80;9.77;;;;;;;9.16;100.00;102722.81;6181208;23;20139;-89
2022/10/19 09:00:58;;;;;;;17.38;9.45;;;;;;;9.21;100.00;102728.94;6180264;23;20410;-89
2022/10/19 09:03:33;;;;;;;21.27;10.15;;;;;;;9.27;100.00;102724.72;6181279;23;20015;-89
2022/10/19 09:06:22;;;;;;;16.88;9.10;;;;;;;9.32;100.00;102722.16;6182155;23;20056;-89
2022/10/19 09:08:52;;;;;;;18.77;8.52;;;;;;;9.40;100.00;102731.75;6179400;23;20394;-89
2022/10/19 09:11:24;;;;;;;14.25;8.38;;;;;;;9.45;100.00;102717.13;6180280;23;20005;-90
2022/10/19 09:13:59;;;;;;;16.45;8.63;;;;;;;9.49;100.00;102705.94;6180575;23;20009;-90
2022/10/19 09:16:24;;;;;;;13.80;8.15;;;;;;;9.67;100.00;102722.53;6180041;23;20446;-90
2022/10/19 09:18:50;;;;;;;16.02;8.40;;;;;;;9.72;100.00;102715.69;6179468;23;20008;-89
2022/10/19 09:21:22;;;;;;;17.00;8.27;;;;;;;9.71;100.00;102704.47;6182089;23;20083;-90
2022/10/19 09:24:10;;;;;;;15.55;7.53;;;;;;;9.82;100.00;102712.34;6181616;23;20001;-90
2022/10/19 09:26:52;;;;;;;15.73;7.03;;;;;;;9.97;100.00;102709.88;6180038;23;19997;-89
2022/10/19 09:29:22;;;;;;;14.55;6.88;;;;;;;10.04;100.00;102709.06;6179239;23;20378;-89
2022/10/19 09:31:52;;;;;;;9.75;5.93;;;;;;;10.12;100.00;102702.22;6178818;23;20005;-89
2022/10/19 09:34:37;;;;;;;15.15;5.80;;;;;;;10.22;100.00;102696.31;6180221;23;20341;-89
2022/10/19 09:37:02;;;;;;;10.63;5.03;;;;;;;10.34;100.00;102708.47;6179621;23;20522;-89
2022/10/19 09:39:29;;;;;;;9.02;4.80;;;;;;;10.41;100.00;102709.41;6177262;23;20011;-89
2022/10/19 09:41:56;;;;;;;12.05;4.82;;;;;;;10.53;100.00;102704.28;6177772;23;20015;-90
2022/10/19 09:44:22;;;;;;;14.00;5.03;;;;;;;10.56;100.00;102697.41;6180216;23;20005;-89
2022/10/19 09:46:50;;;;;;;8.43;4.90;;;;;;;10.66;100.00;102713.88;6179082;23;20004;-89
2022/10/19 09:49:36;;;;;;;10.82;5.20;;;;;;;10.73;100.00;102707.88;6178929;23;20517;-89
2022/10/19 09:52:04;;;;;;;12.73;4.75;;;;;;;10.84;100.00;102703.63;6177059;23;20017;-89
2022/10/19 09:54:38;;;;;;;9.05;4.07;;;;;;;10.96;100.00;102708.00;6179682;23;20004;-89
2022/10/19 09:57:04;;;;;;;7.23;3.07;;;;;;;11.03;100.00;102705.44;6177426;23;20084;-89
2022/10/19 09:59:34;;;;;;;7.35;3.53;;;;;;;11.09;100.00;102689.88;6179631;23;20287;-89
2022/10/19 10:02:05;;;;;;;9.70;3.65;;;;;;;11.13;100.00;102690.75;6178097;23;20004;-89
2022/10/19 10:04:30;;;;;;;9.13;3.90;;;;;;;11.19;100.00;102690.75;6178328;23;20097;-89
2022/10/19 10:06:57;;;;;;;11.93;4.00;;;;;;;11.23;100.00;102689.06;6177450;23;20020;-89
2022/10/19 10:09:28;;;;;;;10.82;3.65;;;;;;;11.26;100.00;102689.94;6177330;23;20020;-89
2022/10/19 10:11:57;;;;;;;12.10;3.40;;;;;;;11.31;100.00;102690.84;6180756;23;20011;-89
2022/10/19 10:14:31;;;;;;;8.05;3.10;;;;;;;11.33;100.00;102681.28;6181496;23;19997;-89
2022/10/19 10:17:01;;;;;;;10.40;3.67;;;;;;;11.41;100.00;102679.59;6178966;23;20008;-89
2022/10/19 10:19:29;;;;;;;7.93;3.60;;;;;;;11.48;99.21;102683.94;6178288;23;20383;-90
2022/10/19 10:21:56;;;;;;;6.80;3.20;;;;;;;11.52;98.49;102661.44;6180846;23;20012;-94
2022/10/19 10:24:50;;;;;;;8.93;3.47;;;;;;;11.65;99.86;102664.94;6181948;23;20012;-88
2022/10/19 10:27:28;;;;;;;9.55;3.53;;;;;;;11.73;99.31;102664.06;6180021;23;20012;-90
2022/10/19 10:29:55;;;;;;;7.55;3.40;;;;;;;11.78;97.88;102657.19;6179995;23;20008;-89
2022/10/19 10:32:21;;;;;;;9.07;3.28;;;;;;;11.91;97.68;102670.16;6181053;23;20001;-89
2022/10/19 10:35:08;;;;;;;11.70;3.45;;;;;;;12.06;98.79;102673.63;6182125;23;20109;-90
2022/10/19 10:37:40;;;;;;;6.80;3.15;;;;;;;12.19;94.53;102671.88;6163774;23;20016;-89
2022/10/19 10:40:19;;;;;;;13.05;3.28;;;;;;;12.25;94.46;102670.16;6180574;23;20075;-89
2022/10/19 10:42:46;;;;;;;8.50;3.17;;;;;;;12.29;93.57;102652.78;6181109;23;20080;-89
2022/10/19 10:45:23;;;;;;;10.40;3.20;;;;;;;12.39;95.06;102664.06;6180961;23;20000;-89
2022/10/19 10:47:48;;;;;;;9.23;3.33;;;;;;;12.40;92.75;102660.59;6180380;23;20004;-90
2022/10/19 10:50:30;;;;;;;9.98;2.95;;;;;;;12.38;94.41;102646.72;6179568;23;20005;-88
2022/10/19 10:53:03;;;;;;;11.63;3.47;;;;;;;12.37;92.02;102653.66;6180487;23;20008;-88
2022/10/19 10:55:30;;;;;;;7.85;3.20;;;;;;;12.37;91.26;102660.56;6179501;23;20011;-88
2022/10/19 10:58:17;;;;;;;10.98;3.45;;;;;;;12.32;92.24;102647.59;6179166;23;20049;-88
2022/10/19 11:00:44;;;;;;;9.82;3.25;;;;;;;12.38;90.33;102644.09;6177791;23;20088;-88
2022/10/19 11:03:21;;;;;;;6.85;3.20;;;;;;;12.35;90.71;102629.38;6180505;23;20008;-88
2022/10/19 11:05:55;;;;;;;7.47;3.10;;;;;;;12.37;90.63;102632.84;6181661;23;20036;-87
2022/10/19 11:08:44;;;;;;;7.70;3.05;;;;;;;12.43;92.31;102627.63;6179025;23;20019;-88
2022/10/19 11:11:17;;;;;;;8.30;3.13;;;;;;;12.40;91.38;102621.56;6180737;23;20071;-88
2022/10/19 11:13:55;;;;;;;12.23;3.42;;;;;;;12.44;90.73;102618.09;6178345;23;20435;-88
2022/10/19 11:16:27;;;;;;;8.90;3.00;;;;;;;12.41;89.18;102618.09;6179474;23;20442;-88
2022/10/19 11:19:18;;;;;;;9.30;3.25;;;;;;;12.43;91.73;102605.94;6179926;23;20446;-89
2022/10/19 11:21:58;;;;;;;8.80;3.22;;;;;;;12.51;90.13;102614.59;6181275;23;20024;-89
2022/10/19 11:24:41;;;;;;;9.07;3.08;;;;;;;12.60;91.07;102606.78;6181209;23;20390;-89
2022/10/19 11:27:48;;;;;;;7.72;3.00;;;;;;;12.68;89.86;102607.63;6181424;23;19990;-90
2022/10/19 11:30:22;;;;;;;6.57;3.08;;;;;;;12.71;89.40;102604.09;6181176;23;20032;-89
2022/10/19 11:32:47;;;;;;;;;;;;;;;12.79;92.69;102602.34;6181473;23;20010;-90
2022/10/19 11:35:29;;;;;;;7.37;3.10;;;;;;;12.79;90.12;102603.22;6179884;23;19908;-89
2022/10/19 11:38:15;;;;;;;8.05;3.25;;;;;;;12.85;91.45;102602.31;6179141;23;20008;-89
2022/10/19 11:41:11;;;;;;;10.27;3.42;;;;;;;12.89;90.02;102596.25;6181186;23;20005;-89
2022/10/19 11:44:02;;;;;;;9.95;3.50;;;;;;;12.94;89.87;102595.34;6181246;23;20008;-90
2022/10/19 11:46:38;;;;;;;8.55;3.65;;;;;;;12.98;88.86;102578.81;6168655;23;20008;-89
2022/10/19 11:49:30;;;;;;;12.75;4.22;;;;;;;12.96;88.72;102577.13;6181199;23;20412;-89